createdAt,value
2022-09-28T00:01:17.571Z,99221.72
2022-09-28T00:03:46.133Z,99216.59
2022-09-28T00:06:16.092Z,99221.91
2022-09-28T00:08:44.149Z,99212.22
2022-09-28T00:11:15.318Z,99202.41
2022-09-28T00:13:46.103Z,99202.69
2022-09-28T00:16:16.898Z,99208.78
2022-09-28T00:18:45.713Z,99204.59
2022-09-28T00:21:16.272Z,99199.38
2022-09-28T00:23:59.001Z,99202.88
2022-09-28T00:26:27.735Z,99193.28
2022-09-28T00:28:59.226Z,99192.13
2022-09-28T00:31:29.426Z,99198.94
2022-09-28T00:33:57.847Z,99188.56
2022-09-28T00:36:27.059Z,99185.06
2022-09-28T00:38:56.413Z,99182.47
2022-09-28T00:41:24.765Z,99182.47
2022-09-28T00:43:52.844Z,99174.78
2022-09-28T00:46:31.624Z,99184.53
2022-09-28T00:49:04.324Z,99170.34
2022-09-28T00:51:33.530Z,99151.88
2022-09-28T00:54:04.917Z,99159.06
2022-09-28T00:56:36.227Z,99155.50
2022-09-28T00:59:05.616Z,99151.13
2022-09-28T01:01:34.941Z,99139.94
2022-09-28T01:04:04.977Z,99146.03
2022-09-28T01:06:35.969Z,99149.59
2022-09-28T01:09:07.913Z,99138.22
2022-09-28T01:11:39.329Z,99135.75
2022-09-28T01:14:12.429Z,99135.88
2022-09-28T01:16:48.132Z,99127.91
2022-09-28T01:19:33.795Z,99130.59
2022-09-28T01:22:21.321Z,99135.13
2022-09-28T01:24:53.539Z,99138.34
2022-09-28T01:27:29.195Z,99137.59
2022-09-28T01:30:04.481Z,99133.34
2022-09-28T01:32:44.279Z,99148.16
2022-09-28T01:35:17.345Z,99142.84
2022-09-28T01:37:52.138Z,99134.28
2022-09-28T01:40:23.482Z,99135.09
2022-09-28T01:42:57.187Z,99130.53
2022-09-28T01:45:31.313Z,99124.44
2022-09-28T01:48:04.542Z,99123.56
2022-09-28T01:50:40.081Z,99128.13
2022-09-28T01:53:13.607Z,99120.63
2022-09-28T01:55:46.204Z,99122.19
2022-09-28T01:58:22.887Z,99116.94
2022-09-28T02:01:01.522Z,99110.91
2022-09-28T02:03:36.023Z,99109.25
2022-09-28T02:06:09.734Z,99110.94
2022-09-28T02:08:41.420Z,99108.19
2022-09-28T02:11:15.337Z,99097.84
2022-09-28T02:13:49.765Z,99099.59
2022-09-28T02:16:22.835Z,99105.38
2022-09-28T02:18:52.242Z,99090.44
2022-09-28T02:21:27.660Z,99096.06
2022-09-28T02:24:01.118Z,99091.59
2022-09-28T02:26:33.546Z,99086.22
2022-09-28T02:29:03.353Z,99087.25
2022-09-28T02:31:33.118Z,99091.56
2022-09-28T02:34:01.347Z,99088.16
2022-09-28T02:36:30.809Z,99090.00
2022-09-28T02:39:01.197Z,99086.69
2022-09-28T02:41:43.003Z,99086.50
2022-09-28T02:44:22.435Z,99077.50
2022-09-28T02:46:58.491Z,99085.44
2022-09-28T02:49:38.691Z,99079.22
2022-09-28T02:52:20.718Z,99075.78
2022-09-28T02:55:02.740Z,99065.44
2022-09-28T02:57:43.604Z,99068.06
2022-09-28T03:00:19.507Z,99066.31
2022-09-28T03:02:56.884Z,99061.91
2022-09-28T03:05:35.628Z,99075.03
2022-09-28T03:08:08.104Z,99054.88
2022-09-28T03:10:41.020Z,99063.72
2022-09-28T03:13:12.486Z,99052.31
2022-09-28T03:15:46.448Z,99054.88
2022-09-28T03:18:16.571Z,99055.13
2022-09-28T03:20:44.548Z,99065.66
2022-09-28T03:23:24.307Z,99059.50
2022-09-28T03:25:52.954Z,99048.94
2022-09-28T03:28:21.378Z,99048.97
2022-09-28T03:30:51.085Z,99052.38
2022-09-28T03:33:19.903Z,99042.81
2022-09-28T03:35:49.058Z,99046.44
2022-09-28T03:38:18.137Z,99046.34
2022-09-28T03:40:46.444Z,99033.25
2022-09-28T03:43:14.392Z,99039.44
2022-09-28T03:45:42.308Z,99039.44
2022-09-28T03:48:11.718Z,99043.69
2022-09-28T03:50:39.640Z,99043.78
2022-09-28T03:53:07.784Z,99048.22
2022-09-28T03:55:35.696Z,99044.84
2022-09-28T03:58:03.687Z,99035.97
2022-09-28T04:00:31.588Z,99043.97
2022-09-28T04:02:59.475Z,99035.94
2022-09-28T04:05:28.941Z,99033.28
2022-09-28T04:07:57.855Z,99036.75
2022-09-28T04:10:26.346Z,99030.63
2022-09-28T04:12:56.144Z,99035.09
2022-09-28T04:15:24.418Z,99034.31
2022-09-28T04:17:52.946Z,99039.69
2022-09-28T04:20:21.121Z,99034.44
2022-09-28T04:22:50.403Z,99033.63
2022-09-28T04:25:18.449Z,99034.53
2022-09-28T04:28:18.197Z,99030.16
2022-09-28T04:30:47.886Z,99026.41
2022-09-28T04:33:15.786Z,99033.63
2022-09-28T04:35:43.753Z,99033.66
2022-09-28T04:38:13.027Z,99031.06
2022-09-28T04:40:41.000Z,99021.44
2022-09-28T04:43:09.495Z,99019.56
2022-09-28T04:45:37.711Z,99007.09
2022-09-28T04:48:08.612Z,99019.44
2022-09-28T04:50:36.492Z,99011.56
2022-09-28T04:53:05.597Z,99015.19
2022-09-28T04:55:34.894Z,99009.00
2022-09-28T04:58:05.216Z,99003.69
2022-09-28T05:00:36.088Z,99004.41
2022-09-28T05:03:04.002Z,99000.72
2022-09-28T05:05:31.938Z,98990.97
2022-09-28T05:08:00.262Z,98997.13
2022-09-28T05:10:30.749Z,98998.97
2022-09-28T05:13:00.015Z,98986.94
2022-09-28T05:15:28.060Z,98980.78
2022-09-28T05:17:55.951Z,98994.84
2022-09-28T05:20:23.874Z,98992.34
2022-09-28T05:22:51.780Z,98981.81
2022-09-28T05:25:23.053Z,98978.31
2022-09-28T05:27:57.078Z,98986.06
2022-09-28T05:30:26.418Z,98976.31
2022-09-28T05:32:54.325Z,98975.50
2022-09-28T05:35:22.496Z,98980.00
2022-09-28T05:37:50.520Z,98969.44
2022-09-28T05:40:18.953Z,98978.22
2022-09-28T05:42:46.902Z,98974.78
2022-09-28T05:45:15.062Z,98975.69
2022-09-28T05:47:46.199Z,98975.66
2022-09-28T05:50:16.070Z,98973.81
2022-09-28T05:52:44.594Z,98969.38
2022-09-28T05:55:12.539Z,98968.41
2022-09-28T05:57:40.454Z,98975.41
2022-09-28T06:00:09.572Z,98963.94
2022-09-28T06:02:37.760Z,98970.03
2022-09-28T06:05:07.767Z,98973.69
2022-09-28T06:07:35.679Z,98964.09
2022-09-28T06:10:03.635Z,98961.44
2022-09-28T06:12:31.577Z,98976.34
2022-09-28T06:15:01.278Z,98966.53
2022-09-28T06:17:29.270Z,98961.19
2022-09-28T06:19:57.166Z,98962.03
2022-09-28T06:22:27.234Z,98978.06
2022-09-28T06:24:55.311Z,98980.66
2022-09-28T06:27:23.222Z,98988.78
2022-09-28T06:29:51.113Z,98993.19
2022-09-28T06:32:19.389Z,98993.13
2022-09-28T06:34:47.309Z,98997.56
2022-09-28T06:37:15.317Z,99011.44
2022-09-28T06:39:44.599Z,99007.94
2022-09-28T06:42:12.505Z,99021.84
2022-09-28T06:44:40.420Z,99021.81
2022-09-28T06:47:08.314Z,99012.72
2022-09-28T06:49:36.235Z,99008.19
2022-09-28T06:52:04.136Z,98998.53
2022-09-28T06:54:32.035Z,99001.22
2022-09-28T06:57:01.306Z,99003.06
2022-09-28T06:59:29.941Z,99006.81
2022-09-28T07:01:57.906Z,99006.03
2022-09-28T07:04:25.925Z,98997.47
2022-09-28T07:06:54.289Z,99013.19
2022-09-28T07:09:32.275Z,99022.19
2022-09-28T07:12:04.936Z,99020.25
2022-09-28T07:14:47.402Z,99026.63
2022-09-28T07:17:16.228Z,99030.19
2022-09-28T07:19:44.525Z,99039.91
2022-09-28T07:22:18.979Z,99044.31
2022-09-28T07:24:49.072Z,99045.94
2022-09-28T07:27:18.370Z,99044.28
2022-09-28T07:29:46.263Z,99050.34
2022-09-28T07:32:14.477Z,99046.94
2022-09-28T07:34:43.788Z,99048.63
2022-09-28T07:37:13.407Z,99047.88
2022-09-28T07:39:55.239Z,99036.44
2022-09-28T07:42:24.863Z,99045.16
2022-09-28T07:44:52.777Z,99047.94
2022-09-28T07:47:30.913Z,99044.47
2022-09-28T07:50:01.072Z,99045.50
2022-09-28T07:52:29.423Z,99049.66
2022-09-28T07:54:57.479Z,99038.34
2022-09-28T07:57:26.764Z,99054.31
2022-09-28T07:59:54.892Z,99065.72
2022-09-28T08:02:23.200Z,99054.31
2022-09-28T08:04:51.385Z,99061.38
2022-09-28T08:07:23.622Z,99060.69
2022-09-28T08:09:52.043Z,99061.59
2022-09-28T08:12:21.187Z,99057.19
2022-09-28T08:14:52.213Z,99060.72
2022-09-28T08:17:20.314Z,99063.41
2022-09-28T08:20:05.371Z,99066.06
2022-09-28T08:22:33.427Z,99053.81
2022-09-28T08:25:01.324Z,99057.31
2022-09-28T08:27:29.350Z,99052.91
2022-09-28T08:29:58.879Z,99061.81
2022-09-28T08:32:27.043Z,99066.25
2022-09-28T08:34:56.080Z,99069.75
2022-09-28T08:37:24.022Z,99067.94
2022-09-28T08:39:51.953Z,99061.81
2022-09-28T08:42:34.835Z,99062.69
2022-09-28T08:45:10.429Z,99053.00
2022-09-28T08:48:04.387Z,99043.38
2022-09-28T08:50:34.571Z,99041.59
2022-09-28T08:53:11.415Z,99042.53
2022-09-28T08:55:45.331Z,99044.28
2022-09-28T08:58:16.286Z,99042.59
2022-09-28T09:00:48.710Z,99040.81
2022-09-28T09:03:19.603Z,99030.22
2022-09-28T09:05:57.810Z,99033.78
2022-09-28T09:08:37.431Z,99034.69
2022-09-28T09:11:16.967Z,99026.75
2022-09-28T09:14:04.035Z,99025.00
2022-09-28T09:16:43.032Z,99016.22
2022-09-28T09:19:17.642Z,99018.84
2022-09-28T09:21:51.168Z,99022.38
2022-09-28T09:24:27.471Z,99018.00
2022-09-28T09:27:06.953Z,99025.00
2022-09-28T09:29:49.436Z,99020.56
2022-09-28T09:32:40.237Z,99025.81
2022-09-28T09:35:38.317Z,99026.75
2022-09-28T09:38:22.105Z,99017.06
2022-09-28T09:41:06.676Z,99011.81
2022-09-28T09:43:53.588Z,99015.31
2022-09-28T09:46:29.533Z,99011.78
2022-09-28T09:49:06.492Z,99012.69
2022-09-28T09:51:42.958Z,99014.44
2022-09-28T09:54:19.644Z,99014.44
2022-09-28T09:56:55.041Z,99003.03
2022-09-28T09:59:28.753Z,99010.06
2022-09-28T10:01:57.211Z,99015.34
2022-09-28T10:04:30.579Z,99014.44
2022-09-28T10:07:02.944Z,98997.75
2022-09-28T10:09:37.158Z,99000.38
2022-09-28T10:12:05.345Z,99004.78
2022-09-28T10:14:33.275Z,99009.19
2022-09-28T10:17:04.050Z,99003.91
2022-09-28T10:19:35.357Z,99003.91
2022-09-28T10:22:06.955Z,99017.09
2022-09-28T10:24:39.785Z,99000.38
2022-09-28T10:27:12.518Z,98998.63
2022-09-28T10:29:51.877Z,98982.78
2022-09-28T10:32:23.080Z,98985.22
2022-09-28T10:34:55.017Z,98982.66
2022-09-28T10:37:24.417Z,98985.28
2022-09-28T10:39:54.359Z,98972.00
2022-09-28T10:42:24.460Z,98970.25
2022-09-28T10:44:56.642Z,98980.13
2022-09-28T10:47:26.510Z,98984.50
2022-09-28T10:49:57.604Z,98975.72
2022-09-28T10:52:39.861Z,98978.38
2022-09-28T10:55:32.433Z,98978.38
2022-09-28T10:58:01.217Z,98985.38
2022-09-28T11:00:35.581Z,98981.88
2022-09-28T11:03:04.075Z,98986.28
2022-09-28T11:05:33.763Z,98979.22
2022-09-28T11:08:07.456Z,98981.84
2022-09-28T11:10:37.894Z,98983.66
2022-09-28T11:13:10.754Z,98984.41
2022-09-28T11:15:44.523Z,98984.41
2022-09-28T11:18:28.237Z,98979.13
2022-09-28T11:21:12.939Z,98979.97
2022-09-28T11:23:42.161Z,98968.53
2022-09-28T11:26:17.684Z,98971.31
2022-09-28T11:28:52.077Z,98983.66
2022-09-28T11:31:27.179Z,98981.91
2022-09-28T11:34:06.286Z,98987.16
2022-09-28T11:36:56.459Z,98981.88
2022-09-28T11:39:36.121Z,98989.78
2022-09-28T11:42:16.496Z,98971.31
2022-09-28T11:44:47.034Z,98966.84
2022-09-28T11:47:43.108Z,98965.19
2022-09-28T11:50:24.269Z,98959.91
2022-09-28T11:53:02.898Z,98960.78
2022-09-28T11:55:36.708Z,98954.59
2022-09-28T11:58:11.463Z,98947.56
2022-09-28T12:00:44.802Z,98947.59
2022-09-28T12:03:18.111Z,98943.22
2022-09-28T12:05:50.966Z,98931.81
2022-09-28T12:08:27.526Z,98938.81
2022-09-28T12:11:00.427Z,98930.06
2022-09-28T12:13:31.302Z,98912.50
2022-09-28T12:16:37.548Z,98915.13
2022-09-28T12:18:54.664Z,98919.50
2022-09-28T12:21:35.784Z,98923.00
2022-09-28T12:24:13.613Z,98915.94
2022-09-28T12:26:48.459Z,98921.25
2022-09-28T12:29:21.168Z,98927.41
2022-09-28T12:31:59.608Z,98914.22
2022-09-28T12:34:27.927Z,98908.09
2022-09-28T12:37:33.328Z,98916.00
2022-09-28T12:40:23.996Z,98912.50
2022-09-28T12:43:20.089Z,98915.97
2022-09-28T12:46:12.425Z,98912.38
2022-09-28T12:49:33.106Z,98927.31
2022-09-28T12:51:50.076Z,98901.72
2022-09-28T12:54:47.525Z,98901.66
2022-09-28T12:57:36.075Z,98892.00
2022-09-28T13:00:07.264Z,98876.13
2022-09-28T13:03:18.528Z,98892.91
2022-09-28T13:06:26.892Z,98895.56
2022-09-28T13:09:11.023Z,98891.16
2022-09-28T13:11:49.276Z,98875.34
2022-09-28T13:14:52.836Z,98870.94
2022-09-28T13:17:39.926Z,98871.84
2022-09-28T13:20:18.706Z,98849.09
2022-09-28T13:22:53.740Z,98857.00
2022-09-28T13:25:25.324Z,98854.41
2022-09-28T13:27:57.895Z,98852.59
2022-09-28T13:30:27.581Z,98850.88
2022-09-28T13:32:59.044Z,98844.75
2022-09-28T13:35:27.542Z,98834.22
2022-09-28T13:38:28.669Z,98835.13
2022-09-28T13:41:13.490Z,98843.00
2022-09-28T13:44:02.854Z,98838.59
2022-09-28T13:46:42.372Z,98844.75
2022-09-28T13:49:18.656Z,98833.28
2022-09-28T13:52:00.952Z,98847.28
2022-09-28T13:54:46.411Z,98850.66
2022-09-28T13:57:25.292Z,98838.16
2022-09-28T14:00:03.848Z,98834.59
2022-09-28T14:02:38.673Z,98836.19
2022-09-28T14:05:49.010Z,98833.31
2022-09-28T14:08:38.516Z,98814.94
2022-09-28T14:11:42.039Z,98813.22
2022-09-28T14:14:51.570Z,98812.59
2022-09-28T14:18:08.818Z,98819.69
2022-09-28T14:20:38.025Z,98831.09
2022-09-28T14:23:31.496Z,98823.94
2022-09-28T14:26:21.741Z,98823.81
2022-09-28T14:28:58.248Z,98829.13
2022-09-28T14:31:28.491Z,98838.59
2022-09-28T14:34:01.281Z,98836.78
2022-09-28T14:36:55.468Z,98826.56
2022-09-28T14:39:47.006Z,98826.69
2022-09-28T14:42:17.921Z,98829.38
2022-09-28T14:45:19.142Z,98832.13
2022-09-28T14:48:12.845Z,98838.19
2022-09-28T14:50:42.509Z,98839.75
2022-09-28T14:53:19.602Z,98849.47
2022-09-28T14:55:51.062Z,98843.22
2022-09-28T14:58:23.529Z,98852.91
2022-09-28T15:00:57.754Z,98851.06
2022-09-28T15:03:27.541Z,98847.38
2022-09-28T15:05:56.974Z,98844.78
2022-09-28T15:08:36.189Z,98843.91
2022-09-28T15:11:04.264Z,98843.19
2022-09-28T15:13:32.244Z,98842.44
2022-09-28T15:16:05.498Z,98855.69
2022-09-28T15:19:04.066Z,98853.22
2022-09-28T15:21:39.064Z,98860.44
2022-09-28T15:24:24.879Z,98859.56
2022-09-28T15:26:53.233Z,98860.41
2022-09-28T15:29:23.076Z,98867.31
2022-09-28T15:31:54.462Z,98868.09
2022-09-28T15:34:47.974Z,98863.88
2022-09-28T15:37:22.172Z,98864.00
2022-09-28T15:39:51.641Z,98862.25
2022-09-28T15:42:20.432Z,98877.13
2022-09-28T15:45:22.216Z,98865.81
2022-09-28T15:47:50.308Z,98871.06
2022-09-28T15:50:24.092Z,98870.19
2022-09-28T15:53:00.821Z,98871.97
2022-09-28T15:55:31.808Z,98869.34
2022-09-28T15:58:08.862Z,98872.00
2022-09-28T16:00:37.084Z,98870.19
2022-09-28T16:03:21.629Z,98878.09
2022-09-28T16:05:52.179Z,98869.31
2022-09-28T16:08:24.855Z,98871.94
2022-09-28T16:11:07.981Z,98853.47
2022-09-28T16:13:37.081Z,98865.75
2022-09-28T16:16:05.093Z,98866.66
2022-09-28T16:18:36.932Z,98860.47
2022-09-28T16:21:26.132Z,98860.56
2022-09-28T16:23:57.679Z,98868.50
2022-09-28T16:26:33.420Z,98866.66
2022-09-28T16:29:07.397Z,98868.41
2022-09-28T16:31:37.770Z,98865.72
2022-09-28T16:34:21.343Z,98870.13
2022-09-28T16:36:51.030Z,98871.06
2022-09-28T16:39:20.857Z,98870.97
2022-09-28T16:41:51.797Z,98861.31
2022-09-28T16:44:26.111Z,98869.91
2022-09-28T16:46:56.968Z,98866.41
2022-09-28T16:49:28.316Z,98861.16
2022-09-28T16:51:56.219Z,98855.81
2022-09-28T16:54:43.781Z,98862.75
2022-09-28T16:57:14.039Z,98855.66
2022-09-28T16:59:42.125Z,98857.31
2022-09-28T17:02:42.250Z,98868.69
2022-09-28T17:05:07.579Z,98867.03
2022-09-28T17:07:38.311Z,98862.78
2022-09-28T17:10:17.471Z,98867.91
2022-09-28T17:12:45.410Z,98860.88
2022-09-28T17:15:15.672Z,98857.38
2022-09-28T17:17:43.581Z,98862.53
2022-09-28T17:20:20.439Z,98855.50
2022-09-28T17:22:48.344Z,98851.06
2022-09-28T17:25:18.576Z,98852.97
2022-09-28T17:27:48.858Z,98851.22
2022-09-28T17:30:17.340Z,98852.19
2022-09-28T17:32:47.207Z,98854.66
2022-09-28T17:35:25.336Z,98853.78
2022-09-28T17:37:53.821Z,98857.13
2022-09-28T17:40:28.781Z,98859.88
2022-09-28T17:42:57.821Z,98864.22
2022-09-28T17:45:27.005Z,98867.75
2022-09-28T17:47:55.065Z,98883.34
2022-09-28T17:50:25.873Z,98879.81
2022-09-28T17:52:54.696Z,98880.56
2022-09-28T17:55:31.701Z,98884.94
2022-09-28T17:58:03.288Z,98890.28
2022-09-28T18:00:34.271Z,98898.97
2022-09-28T18:03:02.208Z,98903.44
2022-09-28T18:05:30.635Z,98905.22
2022-09-28T18:07:59.273Z,98899.00
2022-09-28T18:10:30.859Z,98891.97
2022-09-28T18:12:58.912Z,98890.03
2022-09-28T18:15:26.929Z,98887.47
2022-09-28T18:17:54.911Z,98892.72
2022-09-28T18:20:22.915Z,98890.09
2022-09-28T18:22:50.807Z,98882.94
2022-09-28T18:25:18.794Z,98875.06
2022-09-28T18:27:48.068Z,98882.84
2022-09-28T18:30:16.013Z,98876.84
2022-09-28T18:32:43.913Z,98884.69
2022-09-28T18:35:12.052Z,98889.97
2022-09-28T18:37:41.293Z,98890.78
2022-09-28T18:40:10.817Z,98898.50
2022-09-28T18:42:38.705Z,98896.72
2022-09-28T18:45:11.894Z,98900.34
2022-09-28T18:47:40.116Z,98894.25
2022-09-28T18:50:08.989Z,98893.44
2022-09-28T18:52:37.581Z,98896.88
2022-09-28T18:55:07.616Z,98888.84
2022-09-28T18:57:36.472Z,98890.59
2022-09-28T19:00:08.678Z,98888.03
2022-09-28T19:02:37.623Z,98893.44
2022-09-28T19:05:06.815Z,98887.94
2022-09-28T19:07:35.366Z,98881.44
2022-09-28T19:10:03.473Z,98877.81
2022-09-28T19:12:31.385Z,98878.91
2022-09-28T19:15:00.616Z,98882.63
2022-09-28T19:17:30.019Z,98880.91
2022-09-28T19:19:57.903Z,98892.09
2022-09-28T19:22:25.947Z,98884.88
2022-09-28T19:24:53.905Z,98891.13
2022-09-28T19:27:21.825Z,98894.81
2022-09-28T19:29:50.678Z,98895.50
2022-09-28T19:32:18.574Z,98904.31
2022-09-28T19:34:48.713Z,98886.84
2022-09-28T19:37:17.980Z,98887.53
2022-09-28T19:39:46.505Z,98882.50
2022-09-28T19:42:14.413Z,98882.25
2022-09-28T19:44:42.563Z,98874.31
2022-09-28T19:47:11.676Z,98873.41
2022-09-28T19:49:41.053Z,98868.06
2022-09-28T19:52:16.618Z,98869.06
2022-09-28T19:54:54.491Z,98864.81
2022-09-28T19:57:22.877Z,98865.44
2022-09-28T19:59:52.805Z,98870.88
2022-09-28T20:02:22.382Z,98865.69
2022-09-28T20:04:50.446Z,98864.03
2022-09-28T20:07:19.780Z,98869.34
2022-09-28T20:09:47.863Z,98867.44
2022-09-28T20:12:15.890Z,98862.25
2022-09-28T20:14:44.260Z,98850.63
2022-09-28T20:17:12.149Z,98845.41
2022-09-28T20:19:40.072Z,98853.50
2022-09-28T20:22:08.131Z,98849.38
2022-09-28T20:24:37.708Z,98838.09
2022-09-28T20:27:05.655Z,98844.38
2022-09-28T20:29:33.790Z,98847.09
2022-09-28T20:32:04.083Z,98850.44
2022-09-28T20:34:33.680Z,98852.31
2022-09-28T20:37:01.761Z,98857.50
2022-09-28T20:39:29.730Z,98857.59
2022-09-28T20:41:59.090Z,98856.75
2022-09-28T20:44:27.090Z,98853.25
2022-09-28T20:46:56.688Z,98854.06
2022-09-28T20:49:24.672Z,98848.50
2022-09-28T20:51:52.579Z,98845.41
2022-09-28T20:54:21.752Z,98844.69
2022-09-28T20:56:49.804Z,98837.56
2022-09-28T20:59:20.296Z,98846.66
2022-09-28T21:01:48.347Z,98833.91
2022-09-28T21:04:16.634Z,98826.25
2022-09-28T21:06:44.654Z,98812.25
2022-09-28T21:09:16.353Z,98820.19
2022-09-28T21:11:44.246Z,98818.34
2022-09-28T21:14:12.201Z,98822.13
2022-09-28T21:16:44.793Z,98821.41
2022-09-28T21:19:12.682Z,98819.56
2022-09-28T21:21:43.220Z,98832.63
2022-09-28T21:24:11.304Z,98823.09
2022-09-28T21:26:39.289Z,98832.53
2022-09-28T21:29:15.040Z,98842.22
2022-09-28T21:31:46.736Z,98819.16
2022-09-28T21:34:21.654Z,98818.41
2022-09-28T21:36:51.325Z,98823.03
2022-09-28T21:39:20.278Z,98820.34
2022-09-28T21:41:48.201Z,98823.94
2022-09-28T21:44:16.098Z,98812.56
2022-09-28T21:46:45.932Z,98817.97
2022-09-28T21:49:14.441Z,98818.88
2022-09-28T21:51:42.367Z,98819.78
2022-09-28T21:54:11.991Z,98810.13
2022-09-28T21:56:40.147Z,98801.28
2022-09-28T21:59:08.055Z,98795.91
2022-09-28T22:01:36.014Z,98783.81
2022-09-28T22:04:05.920Z,98782.25
2022-09-28T22:06:36.170Z,98778.84
2022-09-28T22:09:05.404Z,98787.56
2022-09-28T22:11:33.392Z,98778.06
2022-09-28T22:14:01.539Z,98779.72
2022-09-28T22:16:31.308Z,98786.75
2022-09-28T22:19:00.504Z,98781.53
2022-09-28T22:21:31.864Z,98776.31
2022-09-28T22:24:02.023Z,98772.84
2022-09-28T22:26:32.061Z,98768.34
2022-09-28T22:29:01.340Z,98770.03
2022-09-28T22:31:34.153Z,98764.53
2022-09-28T22:34:02.638Z,98768.66
2022-09-28T22:36:32.152Z,98764.25
2022-09-28T22:39:00.444Z,98760.84
2022-09-28T22:41:28.867Z,98761.81
2022-09-28T22:43:57.751Z,98756.69
2022-09-28T22:46:28.100Z,98760.25
2022-09-28T22:48:57.646Z,98762.16
2022-09-28T22:51:28.155Z,98762.78
2022-09-28T22:53:58.113Z,98761.84
2022-09-28T22:56:26.583Z,98759.00
2022-09-28T22:58:57.129Z,98747.81
2022-09-28T23:01:27.005Z,98742.31
2022-09-28T23:04:00.965Z,98753.88
2022-09-28T23:06:30.397Z,98746.91
2022-09-28T23:09:00.502Z,98750.53
2022-09-28T23:11:29.450Z,98737.19
2022-09-28T23:13:58.957Z,98745.06
2022-09-28T23:16:27.662Z,98745.84
2022-09-28T23:18:56.970Z,98744.00
2022-09-28T23:21:26.950Z,98743.09
2022-09-28T23:23:56.687Z,98740.31
2022-09-28T23:26:27.777Z,98725.63
2022-09-28T23:28:56.068Z,98727.53
2022-09-28T23:31:25.749Z,98727.75
2022-09-28T23:33:57.752Z,98724.28
2022-09-28T23:36:25.719Z,98720.75
2022-09-28T23:38:53.773Z,98714.63
2022-09-28T23:41:21.691Z,98712.88
2022-09-28T23:43:51.172Z,98710.22
2022-09-28T23:46:21.044Z,98699.59
2022-09-28T23:48:49.363Z,98701.25
2022-09-28T23:51:20.157Z,98700.38
2022-09-28T23:53:48.179Z,98704.66
2022-09-28T23:56:16.157Z,98693.25
2022-09-28T23:58:44.157Z,98696.88
